Scroll down
FLIGHT INFORMATION
British Airways

BAW253

At Arrival Gate

EGLL
 MYNN
DATE: 2021-08-21
GATE: 539
GATE DEPARTURE: 11:18
TAKEOFF: 11:27
DATE: 2021-08-21
GATE:  -
LANDING: 20:16
GATE ARRIVAL: 20:21
FLIGHT DATA
Crew: 
Speed: 
912 kph
Altitude: 
40,039 ft
Stage Length: 
6,976.5 km
Block Time: 
9 hrs
Flight Time: 
8.8 hrs
Fuel Used: 
52,311 kg
Cleared Route: EGLL CPT KENET UGNUS OKTAD DOBEM TOPRO MEDOG FOXLA ABAPO PEMOB LANPI BAKUR DOGAL 5420N 5330N 5040N 4450N 3760N RNGRS ANTIG EMAKO TASNI GRAMN 2900N07215W GRATX EXTER MAMML ZQA MYNN
TRACK DATA
50,000 ft 1,000 kts
AIRCRAFT INFO AND CUMULATIVE STATS
Aircraft Type: 
B772
Registration: 
SELCAL: 
GJEQ
MSN/LN: 
29319 / 157
Operator: 
Total Flights: 
8
Total Block Time: 
62.2 hrs
Total Flight Time: 
60.1 hrs
Total Fuel Used: 
370,846 kg
DATALINK LOG | Newest first | Current as of: 2022-09-27 08:13:07
LABEL SEQUENCE CONTENT Dn/Up
QD222120:21 21▼ Dn
QC170120:16▼ Dn
2U0923MYNN 211900Z 15012KT 9999 SCT025 SCT220 32/25 A3000▲ Up
2S0954MYNN▼ Dn
GA3429GATE PENDING▲ Up
GR3419MYNN 20:15 MAAS 00 YP/UM 00/00 WCHR/S/C 00/00/00 HI-VAL NO DIPL/VIP NO▼ Dn
2U2607MYNN 211900Z 15012KT 9999 SCT025 SCT220 32/25 A3000▲ Up
2S2611MYNN▼ Dn
5R23114450N 16:22z FL389 3760N 17:41z RNGRS M0.82 29.4 -60 289/76 MYNN 20:06z▼ Dn
2U1324CYQX 211600Z 01008G19KT 15SM -RA FEW007 OVC017 13/13 A2993 RMK SF1SC8 SF TR SLP140▲ Up
2S1402CYQX▼ Dn
5U5800MYNN 211957Z 13008KT 9999 VCSH FEW018CB) 31/23 A3002▲ Up
5S5848MYNN▼ Dn
5R51415040N 15:05z FL390 4450N 16:22z 3760N M0.82 36.7 -54 225/81 MYNN 20:06z▼ Dn
5R03555330N 14:02z FL389 5040N 15:04z 4450N M0.82 42.8 -58 244/69 MYNN 20:05z▼ Dn
5R15075420N 13:08z FL390 5330N 14:01z 5040N M0.82 48.2 -57 289/77 MYNN 20:05z▼ Dn
DM484538DOGAL 12:42z FL390 5420N 13:08z 5330N M0.82 50.8 -51 301/53 MYNN 20:04z▼ Dn
QB272311:27▼ Dn
QA191611:18 136.4▼ Dn
5Z191621 AUG 21 11:18:51z / FLT DECK GOOD / ACF POS GOOD / GRND SERVICES GOOD / MAINT GOOD▼ Dn
Q01915[LINK ACK]▲ Up
Q01915[LINK TEST]▼ Dn
Q01612[LINK ACK]▲ Up
Q01612[LINK TEST]▼ Dn
2U5320EGLL 211020Z AUTO 10005KT 9999 -RA SCT045 18/14 Q1015 NOSIG▲ Up
2S5341EGLL▼ Dn
A35250CLEARED TO MYNN VIA CPT5J CPT Q63 KENET N14 BAKUR DOGAL 54N020W 53N030W 50N040W 44N050W 37N060W RNGRS ANTIG M328 GRAMN 2900N07215W GRATX EXTER M329 MAMML ZQA. SQUAWK 4003.▲ Up
B35240EGLL MYNN BAW253 G-VIIN ▼ Dn
Q04735[LINK ACK]▲ Up
Q04735[LINK TEST]▼ Dn


AIRCRAFT HISTORY
FLIGHT DATE FLIGHT NO. ORIGIN DESTINATION CLEARED ROUTE BLOCK TIME FLIGHT TIME FUEL USED PILOT
2022-01-31BAW226KATL EGLL KATL SPA FAK RBV LAURN LLUND BAYYS FOXWD EBONY RIKAL 5350N 5540N 5730N 5720N PIKIL SOVED LUTOV KELLY CASEL PENIL WAL EKLAD MOGTA NANTI NUGRA EGLL7.4 hrs7.2 hrs91,602 lbAnton Vind
2022-01-28BAW227EGLL KATL EGLL GOGSI EVTES EXARO OSNUG ADKIK KOXOD JOZMA SOPTU UNPUP GAPLI SOMAX 4920N 4930N 4940N 4850N NICSO ALLEX ENE BAF BIGGO TRIBS BASYE DBABE LANNA PTW BYRDD HAAGN PENSY EMI CSN MOL FLASK KATL9.7 hrs9.3 hrs123,947 lbAnton Vind
2021-08-23BAW252MYNN EGLL MYNN ZQA INGRA ELBOW ANGLL NUCAR CASPR SCOBY CARPX PERIE OLDEY DIW WETRO CEBEE SWL WARNN ZIZZI YAZUU EMJAY GEDIC RIFLE YAHOO KANNI JOOPY 4950N 5040N 5130N 5120N DINIM ELSOX LINRA LILNO EVRIN NEKAP LAZTU ABDUK NUMPO OKESI HOFIK BEDEK EGLL8.7 hrs8.5 hrs115,869 lbAnton Vind
2021-08-21BAW253EGLL MYNN EGLL CPT KENET UGNUS OKTAD DOBEM TOPRO MEDOG FOXLA ABAPO PEMOB LANPI BAKUR DOGAL 5420N 5330N 5040N 4450N 3760N RNGRS ANTIG EMAKO TASNI GRAMN 2900N07215W GRATX EXTER MAMML ZQA MYNN9 hrs8.8 hrs115,327 lbAnton Vind
2021-07-08BAW158TXKF EGLL TXKF BALOO 4060N JEBBY LOMPI JOOPY 4950N 5040N 5130N 5120N DINIM ELSOX EVRIN NEKAP LAZTU ABDUK NUMPO OKESI HOFIK BEDEK EGLL6.6 hrs6.4 hrs83,150 lbAnton Vind
2021-07-05BAW159EGLL TXKF EGLL CPT KENET GAVGO DEZZU DIKAS ABDUK SWANY ASRAX DUFZO MERLY LESLU SOMAX 4920N 4830N 4540N 3950N 3460N LAZEY TXKF7.2 hrs6.9 hrs96,569 lbAnton Vind
2021-04-21BAW9800HOBBI EGLL OBBI BHR NARMI KFA TAYMA LABLI MEDGO LUGAL SIBLI ANTER BPN ALKIR PASIT NALBU LOSEL HIL REVAB SOBAS NABEK DAXEM RABUG NAGIP KITOT NWB DATOK SERMA GENIV LAKTO TEZAK USEBE OTHON VAXOS FOXLI RDS LARKI URNIL IKARO PIPEN MES NEMIS MOCNA LUPIS GIKAS PEREN MICPO EVIVI EDIKA BAVGA OKANA BEDOX KFT ERKIR KOGOL KPT RAVED HOC NATLI LUL IXILU RESPO RLP ROTSI KOTUN PODUK DIDOR IRBAL NITAR ABNUR DIMAL ALESO EGLL7.2 hrs6.9 hrs102,083 lbChris Makris
2021-04-07BAW9800GEGLL OBBI EGLL D252B D162J EPMNB DET32 DE29A D271E DET DVR KONAN KOK FERDI BUPAL REMBA SPI PELIX MATUG GUBAX BOREP ENITA ETVIS BUDEX SASAL SOGMO BABIT KOTUS NISVA OMENO NIKTI LOPTI KPL ASPIV SUTIS AMALA LMO ERESO RIKSO IMR OKESA AKBUK MILAS YUNUS BANRO RDS NAVOK TIRMO VAXOS VANZA LAKTO GENIV SERMA DATOK TAKSU KARIK ULINA ELETA TAMIM PETRA DEESA BOSAL LABAD NIMAR DEDGI GENON TAMRO NOTLI LOXOM MOGON EMARO DEBOL MAANI GESOR NADEN DASVA OTERA NAGTO RABKA SIBGA LADNA OBBI6.4 hrs6.1 hrs89,029 lbChris Makris